createdAt,value
2022-11-15T00:00:24.480Z,99960.63
2022-11-15T00:03:15.075Z,99957.75
2022-11-15T00:06:04.985Z,99963.44
2022-11-15T00:08:52.593Z,99965.06
2022-11-15T00:11:40.415Z,99955.34
2022-11-15T00:14:28.035Z,99952.28
2022-11-15T00:17:15.783Z,99946.06
2022-11-15T00:20:06.577Z,99953.13
2022-11-15T00:22:54.285Z,99956.09
2022-11-15T00:25:42.342Z,99951.41
2022-11-15T00:28:30.432Z,99947.09
2022-11-15T00:31:18.215Z,99950.56
2022-11-15T00:34:06.247Z,99951.22
2022-11-15T00:36:56.619Z,99956.38
2022-11-15T00:39:44.321Z,99948.69
2022-11-15T00:42:32.183Z,99954.56
2022-11-15T00:45:20.177Z,99958.72
2022-11-15T00:48:08.507Z,99952.50
2022-11-15T00:50:56.379Z,99953.94
2022-11-15T00:53:46.856Z,99943.38
2022-11-15T00:56:34.639Z,99947.63
2022-11-15T00:59:22.455Z,99951.59
2022-11-15T01:02:10.144Z,99948.03
2022-11-15T01:04:57.871Z,99950.47
2022-11-15T01:07:45.603Z,99952.84
2022-11-15T01:10:37.112Z,99950.38
2022-11-15T01:13:24.925Z,99961.69
2022-11-15T01:16:13.041Z,99966.72
2022-11-15T01:19:00.747Z,99954.88
2022-11-15T01:21:48.353Z,99952.81
2022-11-15T01:24:36.092Z,99941.56
2022-11-15T01:27:26.559Z,99939.59
2022-11-15T01:30:14.636Z,99933.09
2022-11-15T01:33:02.770Z,99934.88
2022-11-15T01:35:50.686Z,99924.16
2022-11-15T01:38:38.759Z,99928.09
2022-11-15T01:41:27.649Z,99919.13
2022-11-15T01:44:30.390Z,99911.97
2022-11-15T01:47:21.039Z,99911.59
2022-11-15T01:50:09.570Z,99921.31
2022-11-15T01:52:57.538Z,99919.53
2022-11-15T01:55:45.431Z,99919.34
2022-11-15T01:58:33.159Z,99914.91
2022-11-15T02:01:20.922Z,99931.03
2022-11-15T02:04:13.046Z,99916.63
2022-11-15T02:07:00.850Z,99919.94
2022-11-15T02:09:49.277Z,99908.63
2022-11-15T02:12:36.897Z,99905.88
2022-11-15T02:15:24.711Z,99911.91
2022-11-15T02:18:14.386Z,99906.72
2022-11-15T02:21:09.856Z,99907.25
2022-11-15T02:24:11.132Z,99903.75
2022-11-15T02:27:12.928Z,99900.50
2022-11-15T02:30:15.665Z,99900.69
2022-11-15T02:33:07.670Z,99894.91
2022-11-15T02:35:58.706Z,99887.72
2022-11-15T02:38:48.292Z,99889.72
2022-11-15T02:41:42.330Z,99885.44
2022-11-15T02:44:28.079Z,99896.13
2022-11-15T02:47:16.797Z,99890.56
2022-11-15T02:50:08.199Z,99878.00
2022-11-15T02:52:56.315Z,99878.59
2022-11-15T02:55:44.937Z,99877.91
2022-11-15T02:58:41.312Z,99885.34
2022-11-15T03:01:32.387Z,99877.97
2022-11-15T03:04:22.875Z,99880.72
2022-11-15T03:07:14.789Z,99891.63
2022-11-15T03:10:04.910Z,99885.34
2022-11-15T03:12:54.254Z,99882.31
2022-11-15T03:15:44.504Z,99889.72
2022-11-15T03:18:34.494Z,99879.31
2022-11-15T03:21:22.803Z,99888.28
2022-11-15T03:24:13.080Z,99897.91
2022-11-15T03:27:00.742Z,99884.69
2022-11-15T03:29:49.382Z,99886.38
2022-11-15T03:32:38.463Z,99886.38
2022-11-15T03:35:26.929Z,99876.00
2022-11-15T03:38:15.914Z,99881.78
2022-11-15T03:41:08.071Z,99879.16
2022-11-15T03:43:56.899Z,99878.94
2022-11-15T03:46:46.662Z,99874.50
2022-11-15T03:49:35.398Z,99871.66
2022-11-15T03:52:23.957Z,99867.16
2022-11-15T03:55:13.218Z,99862.78
2022-11-15T03:58:04.137Z,99870.56
2022-11-15T04:00:52.249Z,99862.88
2022-11-15T04:03:40.240Z,99859.13
2022-11-15T04:06:27.829Z,99858.06
2022-11-15T04:09:15.663Z,99856.19
2022-11-15T04:12:03.357Z,99844.47
2022-11-15T04:15:08.138Z,99852.03
2022-11-15T04:17:56.811Z,99849.97
2022-11-15T04:21:12.125Z,99848.63
2022-11-15T04:24:12.564Z,99848.72
2022-11-15T04:27:00.699Z,99850.53
2022-11-15T04:29:48.476Z,99852.22
2022-11-15T04:32:38.829Z,99849.31
2022-11-15T04:35:26.647Z,99848.44
2022-11-15T04:38:14.642Z,99846.75
2022-11-15T04:41:02.579Z,99842.78
2022-11-15T04:43:50.618Z,99847.78
2022-11-15T04:46:38.422Z,99848.72
2022-11-15T04:49:28.737Z,99848.44
2022-11-15T04:52:16.668Z,99853.63
2022-11-15T04:55:08.160Z,99847.03
2022-11-15T04:58:03.090Z,99843.38
2022-11-15T05:00:51.174Z,99848.06
2022-11-15T05:03:51.762Z,99843.91
2022-11-15T05:06:42.279Z,99834.38
2022-11-15T05:09:30.117Z,99829.94
2022-11-15T05:12:17.943Z,99836.19
2022-11-15T05:15:05.912Z,99843.16
2022-11-15T05:17:54.043Z,99848.28
2022-11-15T05:20:41.959Z,99850.13
2022-11-15T05:23:32.749Z,99852.97
2022-11-15T05:26:21.262Z,99852.13
2022-11-15T05:29:09.017Z,99846.75
2022-11-15T05:31:56.932Z,99847.03
2022-11-15T05:34:44.770Z,99845.63
2022-11-15T05:37:32.562Z,99837.88
2022-11-15T05:40:23.208Z,99833.72
2022-11-15T05:43:11.269Z,99840.72
2022-11-15T05:45:59.074Z,99841.47
2022-11-15T05:48:47.747Z,99842.50
2022-11-15T05:51:35.420Z,99830.69
2022-11-15T05:54:23.091Z,99835.81
2022-11-15T05:57:13.651Z,99829.47
2022-11-15T06:00:01.612Z,99830.31
2022-11-15T06:02:49.337Z,99840.88
2022-11-15T06:05:36.977Z,99833.91
2022-11-15T06:08:24.789Z,99839.19
2022-11-15T06:11:12.695Z,99832.97
2022-11-15T06:14:03.032Z,99853.09
2022-11-15T06:16:51.022Z,99846.56
2022-11-15T06:19:42.382Z,99847.13
2022-11-15T06:22:30.114Z,99847.97
2022-11-15T06:25:18.015Z,99855.72
2022-11-15T06:28:06.266Z,99861.84
2022-11-15T06:30:56.587Z,99862.41
2022-11-15T06:33:44.221Z,99862.22
2022-11-15T06:36:32.018Z,99863.94
2022-11-15T06:39:19.923Z,99855.06
2022-11-15T06:42:07.935Z,99863.53
2022-11-15T06:44:55.868Z,99861.09
2022-11-15T06:47:50.365Z,99862.03
2022-11-15T06:50:38.339Z,99869.31
2022-11-15T06:53:26.141Z,99864.97
2022-11-15T06:56:13.950Z,99878.50
2022-11-15T06:59:01.690Z,99873.75
2022-11-15T07:01:49.477Z,99876.38
2022-11-15T07:04:40.457Z,99876.59
2022-11-15T07:07:28.431Z,99886.50
2022-11-15T07:10:16.790Z,99886.50
2022-11-15T07:13:04.723Z,99892.81
2022-11-15T07:15:52.742Z,99902.66
2022-11-15T07:18:40.755Z,99894.53
2022-11-15T07:21:31.147Z,99902.75
2022-11-15T07:24:18.915Z,99905.50
2022-11-15T07:27:06.758Z,99908.88
2022-11-15T07:29:55.091Z,99914.81
2022-11-15T07:32:42.935Z,99916.91
2022-11-15T07:35:31.026Z,99917.84
2022-11-15T07:38:23.030Z,99924.00
2022-11-15T07:41:10.897Z,99918.63
2022-11-15T07:43:58.741Z,99930.31
2022-11-15T07:46:46.670Z,99929.56
2022-11-15T07:49:34.545Z,99927.50
2022-11-15T07:52:22.313Z,99930.03
2022-11-15T07:55:13.303Z,99932.84
2022-11-15T07:58:04.227Z,99935.31
2022-11-15T08:00:52.040Z,99932.59
2022-11-15T08:03:39.915Z,99928.72
2022-11-15T08:06:27.613Z,99930.78
2022-11-15T08:09:15.392Z,99928.91
2022-11-15T08:12:05.762Z,99928.16
2022-11-15T08:14:53.693Z,99923.22
2022-11-15T08:17:41.615Z,99926.53
2022-11-15T08:20:30.682Z,99934.47
2022-11-15T08:23:18.569Z,99928.72
2022-11-15T08:26:06.964Z,99928.59
2022-11-15T08:28:57.475Z,99924.16
2022-11-15T08:31:45.318Z,99918.97
2022-11-15T08:34:33.306Z,99927.75
2022-11-15T08:37:21.637Z,99928.97
2022-11-15T08:40:10.538Z,99931.81
2022-11-15T08:42:59.758Z,99921.34
2022-11-15T08:45:50.246Z,99923.13
2022-11-15T08:48:38.027Z,99922.94
2022-11-15T08:51:25.848Z,99924.72
2022-11-15T08:54:13.645Z,99913.50
2022-11-15T08:57:01.414Z,99916.16
2022-11-15T08:59:49.230Z,99916.81
2022-11-15T09:02:39.592Z,99911.25
2022-11-15T09:05:27.513Z,99913.22
2022-11-15T09:08:45.557Z,99905.66
2022-11-15T09:11:24.223Z,99910.09
2022-11-15T09:14:14.132Z,99911.63
2022-11-15T09:17:02.104Z,99901.59
2022-11-15T09:19:52.702Z,99901.72
2022-11-15T09:22:40.593Z,99907.63
2022-11-15T09:25:28.282Z,99910.75
2022-11-15T09:28:15.982Z,99901.22
2022-11-15T09:31:04.639Z,99898.31
2022-11-15T09:33:52.357Z,99899.25
2022-11-15T09:36:42.762Z,99890.75
2022-11-15T09:39:30.698Z,99898.13
2022-11-15T09:42:25.948Z,99903.59
2022-11-15T09:45:16.926Z,99889.72
2022-11-15T09:48:19.030Z,99897.16
2022-11-15T09:51:08.346Z,99890.66
2022-11-15T09:54:37.397Z,99886.88
2022-11-15T09:56:33.003Z,99885.16
2022-11-15T09:59:08.402Z,99883.38
2022-11-15T10:01:40.718Z,99882.63
2022-11-15T10:04:11.920Z,99871.47
2022-11-15T10:06:42.529Z,99863.84
2022-11-15T10:09:19.971Z,99856.53
2022-11-15T10:11:51.982Z,99855.38
2022-11-15T10:14:21.971Z,99847.97
2022-11-15T10:17:06.424Z,99847.84
2022-11-15T10:19:38.123Z,99840.66
2022-11-15T10:22:10.264Z,99838.22
2022-11-15T10:24:43.753Z,99822.06
2022-11-15T10:27:13.524Z,99831.22
2022-11-15T10:29:46.350Z,99832.00
2022-11-15T10:32:16.259Z,99823.75
2022-11-15T10:34:45.574Z,99823.47
2022-11-15T10:37:15.000Z,99817.31
2022-11-15T10:39:46.964Z,99818.81
2022-11-15T10:42:20.306Z,99810.00
2022-11-15T10:44:49.594Z,99816.56
2022-11-15T10:47:39.780Z,99812.34
2022-11-15T10:50:11.022Z,99806.13
2022-11-15T10:52:40.748Z,99795.69
2022-11-15T10:55:24.565Z,99787.66
2022-11-15T10:57:54.803Z,99784.50
2022-11-15T11:00:31.262Z,99790.31
2022-11-15T11:03:01.528Z,99780.72
2022-11-15T11:05:37.889Z,99783.94
2022-11-15T11:08:22.474Z,99780.22
2022-11-15T11:11:02.760Z,99778.72
2022-11-15T11:13:33.579Z,99774.81
2022-11-15T11:16:15.546Z,99762.44
2022-11-15T11:18:46.561Z,99772.25
2022-11-15T11:21:17.203Z,99761.91
2022-11-15T11:23:48.805Z,99760.81
2022-11-15T11:26:27.269Z,99757.00
2022-11-15T11:28:58.079Z,99750.13
2022-11-15T11:31:29.123Z,99745.97
2022-11-15T11:34:01.272Z,99742.81
2022-11-15T11:36:31.425Z,99735.91
2022-11-15T11:39:01.924Z,99739.16
2022-11-15T11:41:41.258Z,99737.81
2022-11-15T11:44:14.139Z,99733.91
2022-11-15T11:46:50.967Z,99739.41
2022-11-15T11:49:22.730Z,99738.44
2022-11-15T11:51:53.280Z,99734.31
2022-11-15T11:54:23.396Z,99739.41
2022-11-15T11:56:55.426Z,99734.09
2022-11-15T11:59:26.346Z,99732.28
2022-11-15T12:01:55.775Z,99722.59
2022-11-15T12:04:28.150Z,99724.31
2022-11-15T12:06:58.634Z,99720.66
2022-11-15T12:09:30.734Z,99725.38
2022-11-15T12:12:04.612Z,99731.63
2022-11-15T12:14:35.511Z,99724.75
2022-11-15T12:17:05.182Z,99736.53
2022-11-15T12:19:35.910Z,99740.66
2022-11-15T12:22:06.208Z,99734.22
2022-11-15T12:24:37.430Z,99726.47
2022-11-15T12:27:10.722Z,99722.22
2022-11-15T12:29:40.946Z,99719.66
2022-11-15T12:32:15.563Z,99716.38
2022-11-15T12:34:48.636Z,99708.63
2022-11-15T12:37:33.017Z,99701.94
2022-11-15T12:40:19.270Z,99694.50
2022-11-15T12:43:03.044Z,99680.56
2022-11-15T12:45:33.134Z,99664.91
2022-11-15T12:48:17.473Z,99665.44
2022-11-15T12:50:59.755Z,99656.63
2022-11-15T12:53:32.369Z,99664.38
2022-11-15T12:56:28.740Z,99654.09
2022-11-15T12:59:03.254Z,99649.19
2022-11-15T13:01:56.604Z,99644.56
2022-11-15T13:04:27.196Z,99635.22
2022-11-15T13:06:57.213Z,99634.78
2022-11-15T13:09:41.595Z,99624.44
2022-11-15T13:12:14.521Z,99618.56
2022-11-15T13:14:50.626Z,99616.75
2022-11-15T13:17:38.639Z,99616.28
2022-11-15T13:20:37.983Z,99612.16
2022-11-15T13:23:12.015Z,99604.63
2022-11-15T13:25:49.458Z,99603.72
2022-11-15T13:28:23.942Z,99596.13
2022-11-15T13:30:56.286Z,99590.94
2022-11-15T13:33:28.431Z,99595.59
2022-11-15T13:36:01.862Z,99583.69
2022-11-15T13:38:32.558Z,99585.63
2022-11-15T13:41:02.437Z,99583.75
2022-11-15T13:43:33.234Z,99586.00
2022-11-15T13:46:13.618Z,99586.34
2022-11-15T13:48:43.098Z,99579.66
2022-11-15T13:51:13.935Z,99581.47
2022-11-15T13:53:44.174Z,99569.44
2022-11-15T13:56:13.517Z,99570.16
2022-11-15T13:58:43.040Z,99558.81
2022-11-15T14:01:18.137Z,99552.66
2022-11-15T14:03:50.689Z,99553.97
2022-11-15T14:06:21.391Z,99544.22
2022-11-15T14:09:05.826Z,99544.09
2022-11-15T14:11:35.209Z,99527.34
2022-11-15T14:14:17.438Z,99532.03
2022-11-15T14:16:50.191Z,99532.38
2022-11-15T14:19:34.709Z,99522.94
2022-11-15T14:22:14.265Z,99514.25
2022-11-15T14:24:43.798Z,99507.16
2022-11-15T14:27:19.963Z,99508.84
2022-11-15T14:29:49.352Z,99501.00
2022-11-15T14:32:22.177Z,99492.22
2022-11-15T14:34:51.823Z,99489.81
2022-11-15T14:37:26.164Z,99481.22
2022-11-15T14:39:55.695Z,99480.91
2022-11-15T14:42:25.653Z,99478.38
2022-11-15T14:44:55.152Z,99478.81
2022-11-15T14:47:27.049Z,99470.97
2022-11-15T14:49:56.323Z,99473.41
2022-11-15T14:52:34.301Z,99469.06
2022-11-15T14:55:03.930Z,99466.72
2022-11-15T14:57:33.242Z,99461.00
2022-11-15T15:00:02.516Z,99458.34
2022-11-15T15:02:45.011Z,99454.25
2022-11-15T15:05:18.284Z,99445.66
2022-11-15T15:07:48.007Z,99440.38
2022-11-15T15:10:39.016Z,99441.09
2022-11-15T15:13:07.355Z,99432.31
2022-11-15T15:15:37.250Z,99426.47
2022-11-15T15:18:09.629Z,99431.91
2022-11-15T15:20:38.992Z,99417.91
2022-11-15T15:23:08.330Z,99414.94
2022-11-15T15:25:38.519Z,99420.22
2022-11-15T15:28:07.917Z,99409.56
2022-11-15T15:30:40.430Z,99403.41
2022-11-15T15:33:12.912Z,99407.09
2022-11-15T15:35:42.290Z,99396.41
2022-11-15T15:38:12.241Z,99393.03
2022-11-15T15:40:41.633Z,99395.56
2022-11-15T15:43:11.335Z,99390.16
2022-11-15T15:45:40.925Z,99391.09
2022-11-15T15:48:14.293Z,99377.97
2022-11-15T15:50:43.903Z,99379.66
2022-11-15T15:53:14.005Z,99386.88
2022-11-15T15:55:43.329Z,99381.69
2022-11-15T15:58:12.643Z,99376.50
2022-11-15T16:00:42.003Z,99367.84
2022-11-15T16:03:13.885Z,99363.38
2022-11-15T16:05:43.188Z,99356.41
2022-11-15T16:08:14.035Z,99353.88
2022-11-15T16:10:43.355Z,99345.69
2022-11-15T16:13:12.619Z,99348.69
2022-11-15T16:15:41.925Z,99344.41
2022-11-15T16:18:16.747Z,99344.13
2022-11-15T16:20:46.824Z,99345.69
2022-11-15T16:23:16.714Z,99343.41
2022-11-15T16:25:48.327Z,99344.97
2022-11-15T16:28:21.270Z,99342.31
2022-11-15T16:30:56.420Z,99339.66
2022-11-15T16:33:28.985Z,99334.13
2022-11-15T16:35:58.489Z,99341.25
2022-11-15T16:38:27.954Z,99331.38
2022-11-15T16:40:57.239Z,99328.63
2022-11-15T16:43:26.575Z,99328.41
2022-11-15T16:45:55.891Z,99325.16
2022-11-15T16:48:25.983Z,99321.63
2022-11-15T16:51:00.380Z,99324.91
2022-11-15T16:53:30.058Z,99322.59
2022-11-15T16:55:59.741Z,99316.13
2022-11-15T16:58:29.212Z,99310.59
2022-11-15T17:00:59.067Z,99321.84
2022-11-15T17:03:28.509Z,99319.91
2022-11-15T17:06:03.073Z,99318.09
2022-11-15T17:08:32.554Z,99321.59
2022-11-15T17:11:01.972Z,99314.72
2022-11-15T17:13:33.336Z,99309.31
2022-11-15T17:16:09.929Z,99320.25
2022-11-15T17:18:39.294Z,99326.16
2022-11-15T17:21:13.548Z,99323.00
2022-11-15T17:23:42.870Z,99312.81
2022-11-15T17:26:28.742Z,99310.28
2022-11-15T17:29:00.997Z,99312.94
2022-11-15T17:31:30.835Z,99315.47
2022-11-15T17:34:00.186Z,99316.28
2022-11-15T17:36:32.318Z,99300.41
2022-11-15T17:39:01.720Z,99312.34
2022-11-15T17:41:31.051Z,99317.38
2022-11-15T17:44:03.092Z,99314.38
2022-11-15T17:46:33.521Z,99304.84
2022-11-15T17:49:02.907Z,99311.84
2022-11-15T17:51:34.827Z,99316.63
2022-11-15T17:54:04.137Z,99316.16
2022-11-15T17:56:33.516Z,99315.22
2022-11-15T17:59:03.211Z,99316.69
2022-11-15T18:01:34.159Z,99307.78
2022-11-15T18:04:04.041Z,99293.56
2022-11-15T18:06:36.386Z,99305.38
2022-11-15T18:09:07.249Z,99303.56
2022-11-15T18:11:38.410Z,99310.53
2022-11-15T18:14:08.698Z,99303.44
2022-11-15T18:16:40.253Z,99302.22
2022-11-15T18:19:13.230Z,99313.78
2022-11-15T18:21:59.209Z,99301.19
2022-11-15T18:24:29.450Z,99297.78
2022-11-15T18:26:59.118Z,99293.34
2022-11-15T18:29:28.465Z,99287.56
2022-11-15T18:31:58.932Z,99280.78
2022-11-15T18:34:32.251Z,99291.63
2022-11-15T18:37:05.043Z,99278.53
2022-11-15T18:39:34.411Z,99274.75
2022-11-15T18:42:03.945Z,99277.53
2022-11-15T18:44:33.283Z,99267.19
2022-11-15T18:47:02.641Z,99265.59
2022-11-15T18:49:32.004Z,99251.50
2022-11-15T18:52:04.188Z,99261.09
2022-11-15T18:54:33.551Z,99256.50
2022-11-15T18:57:02.866Z,99260.25
2022-11-15T18:59:32.208Z,99250.94
2022-11-15T19:02:01.537Z,99260.69
2022-11-15T19:04:30.989Z,99253.09
2022-11-15T19:07:00.491Z,99251.53
2022-11-15T19:09:33.530Z,99248.50
2022-11-15T19:12:02.838Z,99248.13
2022-11-15T19:14:32.187Z,99246.19
2022-11-15T19:17:01.503Z,99245.69
2022-11-15T19:19:31.329Z,99236.41
2022-11-15T19:22:00.667Z,99248.78
2022-11-15T19:24:32.847Z,99242.19
2022-11-15T19:27:02.373Z,99239.78
2022-11-15T19:29:31.723Z,99243.50
2022-11-15T19:32:01.042Z,99238.56
2022-11-15T19:34:30.351Z,99230.38
2022-11-15T19:36:59.633Z,99239.31
2022-11-15T19:39:29.037Z,99243.56
2022-11-15T19:42:01.040Z,99239.56
2022-11-15T19:44:30.477Z,99238.84
2022-11-15T19:46:59.945Z,99243.41
2022-11-15T19:49:29.283Z,99230.91
2022-11-15T19:51:59.198Z,99237.34
2022-11-15T19:54:28.481Z,99237.34
2022-11-15T19:56:57.780Z,99236.03
2022-11-15T19:59:29.748Z,99227.88
2022-11-15T20:01:59.033Z,99212.94
2022-11-15T20:04:28.365Z,99220.91
2022-11-15T20:06:57.868Z,99221.16
2022-11-15T20:09:28.115Z,99220.44
2022-11-15T20:11:58.793Z,99213.94
2022-11-15T20:14:30.752Z,99206.03
2022-11-15T20:17:00.086Z,99208.19
2022-11-15T20:19:29.350Z,99209.84
2022-11-15T20:21:58.678Z,99202.88
2022-11-15T20:24:28.234Z,99203.72
2022-11-15T20:26:57.533Z,99207.94
2022-11-15T20:29:26.850Z,99212.38
2022-11-15T20:31:58.812Z,99207.94
2022-11-15T20:34:28.385Z,99213.63
2022-11-15T20:36:57.763Z,99200.00
2022-11-15T20:39:27.203Z,99200.63
2022-11-15T20:41:56.771Z,99201.47
2022-11-15T20:44:26.190Z,99201.81
2022-11-15T20:46:55.508Z,99196.97
2022-11-15T20:49:28.367Z,99191.91
2022-11-15T20:51:57.674Z,99186.50
2022-11-15T20:54:27.003Z,99192.06
2022-11-15T20:56:56.296Z,99175.69
2022-11-15T20:59:25.645Z,99184.69
2022-11-15T21:01:55.064Z,99175.69
2022-11-15T21:04:27.013Z,99173.81
2022-11-15T21:06:58.103Z,99177.72
2022-11-15T21:09:40.001Z,99179.41
2022-11-15T21:12:15.303Z,99177.50
2022-11-15T21:14:45.074Z,99170.63
2022-11-15T21:17:14.474Z,99174.00
2022-11-15T21:19:47.267Z,99172.00
2022-11-15T21:22:16.754Z,99170.25
2022-11-15T21:24:46.074Z,99164.16
2022-11-15T21:27:15.429Z,99163.03
2022-11-15T21:29:45.735Z,99160.19
2022-11-15T21:32:15.078Z,99160.19
2022-11-15T21:34:47.148Z,99156.56
2022-11-15T21:37:16.522Z,99156.56
2022-11-15T21:39:45.847Z,99152.13
2022-11-15T21:42:15.329Z,99155.84
2022-11-15T21:44:44.688Z,99149.03
2022-11-15T21:47:14.021Z,99150.22
2022-11-15T21:49:43.320Z,99152.97
2022-11-15T21:52:15.241Z,99147.81
2022-11-15T21:54:44.573Z,99153.09
2022-11-15T21:57:13.941Z,99147.94
2022-11-15T22:00:03.255Z,99143.47
2022-11-15T22:02:31.246Z,99139.75
2022-11-15T22:05:00.571Z,99137.94
2022-11-15T22:07:32.611Z,99139.31
2022-11-15T22:10:02.099Z,99129.97
2022-11-15T22:12:31.478Z,99123.72
2022-11-15T22:15:00.785Z,99134.44
2022-11-15T22:17:50.270Z,99125.84
2022-11-15T22:23:11.609Z,99116.25
2022-11-15T22:25:41.100Z,99112.03
2022-11-15T22:28:10.498Z,99104.31
2022-11-15T22:30:41.051Z,99105.91
2022-11-15T22:33:10.431Z,99098.91
2022-11-15T22:35:40.440Z,99099.16
2022-11-15T22:38:12.489Z,99095.06
2022-11-15T22:40:41.882Z,99096.09
2022-11-15T22:43:12.135Z,99085.66
2022-11-15T22:45:41.692Z,99086.94
2022-11-15T22:48:11.091Z,99082.28
2022-11-15T22:50:40.573Z,99096.84
2022-11-15T22:53:12.586Z,99084.94
2022-11-15T22:55:42.001Z,99084.94
2022-11-15T22:58:11.412Z,99081.22
2022-11-15T23:00:40.754Z,99074.34
2022-11-15T23:03:10.165Z,99076.28
2022-11-15T23:05:40.466Z,99075.31
2022-11-15T23:08:12.423Z,99063.66
2022-11-15T23:10:54.487Z,99069.06
2022-11-15T23:13:23.859Z,99061.16
2022-11-15T23:16:06.332Z,99061.34
2022-11-15T23:18:36.534Z,99056.19
2022-11-15T23:21:12.617Z,99055.13
2022-11-15T23:23:42.079Z,99052.72
2022-11-15T23:26:12.022Z,99055.47
2022-11-15T23:28:41.387Z,99045.63
2022-11-15T23:31:23.216Z,99042.84
2022-11-15T23:34:01.563Z,99049.84
2022-11-15T23:36:31.269Z,99041.28
2022-11-15T23:39:03.500Z,99042.97
2022-11-15T23:41:32.934Z,99046.13
2022-11-15T23:44:02.566Z,99037.94
2022-11-15T23:46:32.038Z,99036.34
2022-11-15T23:49:01.387Z,99038.53
2022-11-15T23:51:30.842Z,99035.16
2022-11-15T23:54:02.887Z,99033.06
2022-11-15T23:56:32.232Z,99023.34
2022-11-15T23:59:01.684Z,99026.81
